createdAt,value
2018-07-01T00:02:16.681Z,56.60
2018-07-01T00:04:46.893Z,57.30
2018-07-01T00:07:17.125Z,56.60
2018-07-01T00:09:47.738Z,57.00
2018-07-01T00:12:17.957Z,56.30
2018-07-01T00:14:48.219Z,56.50
2018-07-01T00:17:18.446Z,56.50
2018-07-01T00:19:48.646Z,57.10
2018-07-01T00:22:19.015Z,56.30
2018-07-01T00:24:49.233Z,57.20
2018-07-01T00:27:19.456Z,57.40
2018-07-01T00:29:49.693Z,56.40
2018-07-01T00:32:19.911Z,56.50
2018-07-01T00:34:50.113Z,56.40
2018-07-01T00:37:20.410Z,56.70
2018-07-01T00:39:50.624Z,57.00
2018-07-01T00:42:20.921Z,57.10
2018-07-01T00:44:51.141Z,57.60
2018-07-01T00:47:21.368Z,57.50
2018-07-01T00:49:51.659Z,57.70
2018-07-01T00:52:21.894Z,57.70
2018-07-01T00:54:52.370Z,58.00
2018-07-01T00:57:22.560Z,58.30
2018-07-01T00:59:52.760Z,58.60
2018-07-01T01:02:22.965Z,58.90
2018-07-01T01:04:53.178Z,59.10
2018-07-01T01:09:53.645Z,59.40
2018-07-01T01:12:23.975Z,59.50
2018-07-01T01:14:54.230Z,59.60
2018-07-01T01:17:24.743Z,59.60
2018-07-01T01:19:54.992Z,59.70
2018-07-01T01:22:25.202Z,59.70
2018-07-01T01:24:55.640Z,59.70
2018-07-01T01:27:25.850Z,59.90
2018-07-01T01:29:56.033Z,60.00
2018-07-01T01:32:26.297Z,60.00
2018-07-01T01:34:56.727Z,60.10
2018-07-01T01:37:26.923Z,60.20
2018-07-01T01:39:57.759Z,60.30
2018-07-01T01:42:38.628Z,60.20
2018-07-01T01:45:14.093Z,60.60
2018-07-01T01:47:53.989Z,59.90
2018-07-01T01:50:30.078Z,60.50
2018-07-01T01:54:07.435Z,60.70
2018-07-01T01:56:44.286Z,61.00
2018-07-01T01:59:22.113Z,61.00
2018-07-01T02:02:29.588Z,60.80
2018-07-01T02:05:07.286Z,60.80
2018-07-01T02:07:44.633Z,60.50
2018-07-01T02:10:14.870Z,60.40
2018-07-01T02:12:45.149Z,60.80
2018-07-01T02:15:18.937Z,60.90
2018-07-01T02:17:50.809Z,62.00
2018-07-01T02:20:23.473Z,61.00
2018-07-01T02:23:02.596Z,62.10
2018-07-01T02:25:34.256Z,61.40
2018-07-01T02:28:04.602Z,61.50
2018-07-01T02:30:34.821Z,61.60
2018-07-01T02:33:05.051Z,61.80
2018-07-01T02:35:35.294Z,61.80
2018-07-01T02:38:05.898Z,62.00
2018-07-01T02:40:36.081Z,62.30
2018-07-01T02:43:06.562Z,62.30
2018-07-01T02:45:37.198Z,62.50
2018-07-01T02:48:08.521Z,62.50
2018-07-01T02:50:38.779Z,62.80
2018-07-01T02:53:08.984Z,63.00
2018-07-01T02:55:39.154Z,63.20
2018-07-01T02:58:09.372Z,63.30
2018-07-01T03:00:39.591Z,63.40
2018-07-01T03:03:10.010Z,63.60
2018-07-01T03:05:40.206Z,63.90
2018-07-01T03:08:10.509Z,63.40
2018-07-01T03:10:40.741Z,63.70
2018-07-01T03:13:10.944Z,63.60
2018-07-01T03:15:41.142Z,63.90
2018-07-01T03:18:11.742Z,64.00
2018-07-01T03:20:41.972Z,64.40
2018-07-01T03:23:12.163Z,63.80
2018-07-01T03:25:42.340Z,63.80
2018-07-01T03:28:12.611Z,63.80
2018-07-01T03:30:42.773Z,63.90
2018-07-01T03:33:12.993Z,63.80
2018-07-01T03:35:43.221Z,63.80
2018-07-01T03:38:13.395Z,63.40
2018-07-01T03:40:43.565Z,63.30
2018-07-01T03:43:13.924Z,63.10
2018-07-01T03:45:44.128Z,63.00
2018-07-01T03:48:14.363Z,63.70
2018-07-01T03:50:44.619Z,62.70
2018-07-01T03:53:14.821Z,62.60
2018-07-01T03:55:45.031Z,62.50
2018-07-01T03:58:15.185Z,62.30
2018-07-01T04:00:45.374Z,62.30
2018-07-01T04:03:15.564Z,62.20
2018-07-01T04:05:45.775Z,62.30
2018-07-01T04:08:16.018Z,62.40
2018-07-01T04:10:46.181Z,62.10
2018-07-01T04:13:16.400Z,62.20
2018-07-01T04:15:53.288Z,62.30
2018-07-01T04:18:23.475Z,61.60
2018-07-01T04:20:53.698Z,61.40
2018-07-01T04:23:23.893Z,61.40
2018-07-01T04:25:54.265Z,61.60
2018-07-01T04:28:24.806Z,61.70
2018-07-01T04:30:55.207Z,61.80
2018-07-01T04:33:25.430Z,61.70
2018-07-01T04:35:55.650Z,61.90
2018-07-01T04:38:25.856Z,61.60
2018-07-01T04:40:56.060Z,61.90
2018-07-01T04:43:26.220Z,61.80
2018-07-01T04:48:26.497Z,61.90
2018-07-01T04:50:56.682Z,62.20
2018-07-01T04:53:26.868Z,62.20
2018-07-01T04:55:57.017Z,62.50
2018-07-01T04:58:27.256Z,62.10
2018-07-01T05:00:58.339Z,62.20
2018-07-01T05:03:28.555Z,62.60
2018-07-01T05:05:58.752Z,61.20
2018-07-01T05:08:29.025Z,58.70
2018-07-01T05:10:59.206Z,56.40
2018-07-01T05:13:29.502Z,55.60
2018-07-01T05:15:59.745Z,54.70
2018-07-01T05:18:30.142Z,54.70
2018-07-01T05:21:00.402Z,53.30
2018-07-01T05:23:30.721Z,53.20
2018-07-01T05:26:00.937Z,51.10
2018-07-01T05:28:31.164Z,51.00
2018-07-01T05:31:01.551Z,50.20
2018-07-01T05:33:31.712Z,49.50
2018-07-01T05:36:02.021Z,50.10
2018-07-01T05:38:32.548Z,49.30
2018-07-01T05:41:02.832Z,49.60
2018-07-01T05:43:33.093Z,49.00
2018-07-01T05:46:03.258Z,49.00
2018-07-01T05:48:33.560Z,48.20
2018-07-01T05:51:03.801Z,47.90
2018-07-01T05:53:34.109Z,47.50
2018-07-01T05:56:04.370Z,47.20
2018-07-01T05:58:34.568Z,47.40
2018-07-01T06:01:04.806Z,47.80
2018-07-01T06:03:35.000Z,47.90
2018-07-01T06:06:05.216Z,47.80
2018-07-01T06:08:35.466Z,47.40
2018-07-01T06:11:05.678Z,46.90
2018-07-01T06:13:35.904Z,47.00
2018-07-01T06:16:06.191Z,47.50
2018-07-01T06:18:36.528Z,46.40
2018-07-01T06:21:06.958Z,45.40
2018-07-01T06:23:37.214Z,45.50
2018-07-01T06:26:07.509Z,44.60
2018-07-01T06:28:37.770Z,44.20
2018-07-01T06:31:09.165Z,43.90
2018-07-01T06:33:39.538Z,43.90
2018-07-01T06:38:39.550Z,43.40
2018-07-01T06:41:10.146Z,42.60
2018-07-01T06:43:40.363Z,42.60
2018-07-01T06:46:10.579Z,41.80
2018-07-01T06:48:40.894Z,41.20
2018-07-01T06:51:11.154Z,39.90
2018-07-01T06:53:41.393Z,40.00
2018-07-01T06:56:11.578Z,40.40
2018-07-01T06:58:41.853Z,39.90
2018-07-01T07:01:12.092Z,40.30
2018-07-01T07:03:42.778Z,40.30
2018-07-01T07:06:13.281Z,39.40
2018-07-01T07:08:43.432Z,39.50
2018-07-01T07:11:13.630Z,39.80
2018-07-01T07:13:43.908Z,40.40
2018-07-01T07:16:14.657Z,40.60
2018-07-01T07:18:44.869Z,39.90
2018-07-01T07:21:15.129Z,39.70
2018-07-01T07:23:45.376Z,39.60
2018-07-01T07:26:15.641Z,38.90
2018-07-01T07:28:46.157Z,37.70
2018-07-01T07:31:16.335Z,37.60
2018-07-01T07:33:47.033Z,37.50
2018-07-01T07:36:17.714Z,37.00
2018-07-01T07:38:48.160Z,37.00
2018-07-01T07:41:18.305Z,37.20
2018-07-01T07:43:48.465Z,37.40
2018-07-01T07:46:18.692Z,36.20
2018-07-01T07:48:49.210Z,36.90
2018-07-01T07:53:51.654Z,36.30
2018-07-01T07:56:21.913Z,35.30
2018-07-01T07:58:52.249Z,35.00
2018-07-01T08:01:25.627Z,35.00
2018-07-01T08:03:55.769Z,34.80
2018-07-01T08:06:25.965Z,34.50
2018-07-01T08:08:56.141Z,34.30
2018-07-01T08:11:26.312Z,34.50
2018-07-01T08:13:56.628Z,33.30
2018-07-01T08:16:26.825Z,31.90
2018-07-01T08:18:57.037Z,30.20
2018-07-01T08:21:27.172Z,29.70
2018-07-01T08:23:57.345Z,29.90
2018-07-01T08:26:27.649Z,29.90
2018-07-01T08:28:57.861Z,29.20
2018-07-01T08:31:27.938Z,28.30
2018-07-01T08:33:58.097Z,27.60
2018-07-01T08:36:28.444Z,28.10
2018-07-01T08:38:58.605Z,27.50
2018-07-01T08:41:32.722Z,28.30
2018-07-01T08:44:02.897Z,28.00
2018-07-01T08:46:33.051Z,28.20
2018-07-01T08:49:03.202Z,28.40
2018-07-01T08:51:33.358Z,29.30
2018-07-01T08:54:03.518Z,27.90
2018-07-01T08:56:33.690Z,27.60
2018-07-01T08:59:03.995Z,27.70
2018-07-01T09:01:34.126Z,27.20
2018-07-01T09:04:04.277Z,27.50
2018-07-01T09:06:34.461Z,27.30
2018-07-01T09:09:06.986Z,27.20
2018-07-01T09:11:37.150Z,27.40
2018-07-01T09:14:07.300Z,27.10
2018-07-01T09:16:37.468Z,27.70
2018-07-01T09:19:07.712Z,27.00
2018-07-01T09:21:37.874Z,25.80
2018-07-01T09:24:08.161Z,25.60
2018-07-01T09:29:09.421Z,26.60
2018-07-01T09:31:39.586Z,25.90
2018-07-01T09:34:09.735Z,25.80
2018-07-01T09:36:39.910Z,26.40
2018-07-01T09:39:10.738Z,26.20
2018-07-01T09:41:40.882Z,26.70
2018-07-01T09:44:11.039Z,26.10
2018-07-01T09:46:41.212Z,26.50
2018-07-01T09:49:11.371Z,26.80
2018-07-01T09:51:41.564Z,27.10
2018-07-01T09:54:11.854Z,27.50
2018-07-01T09:56:41.997Z,27.50
2018-07-01T09:59:12.149Z,27.70
2018-07-01T10:01:42.304Z,27.50
2018-07-01T10:04:12.446Z,27.50
2018-07-01T10:06:42.603Z,27.30
2018-07-01T10:09:12.736Z,27.40
2018-07-01T10:11:42.884Z,27.50
2018-07-01T10:14:13.015Z,27.00
2018-07-01T10:16:43.334Z,26.50
2018-07-01T10:19:14.300Z,27.90
2018-07-01T10:21:44.443Z,28.00
2018-07-01T10:24:14.658Z,28.20
2018-07-01T10:26:44.837Z,27.40
2018-07-01T10:29:15.598Z,28.00
2018-07-01T10:31:46.122Z,28.30
2018-07-01T10:34:16.654Z,28.30
2018-07-01T10:36:46.802Z,27.90
2018-07-01T10:39:18.196Z,28.50
2018-07-01T10:41:48.344Z,28.70
2018-07-01T10:46:54.505Z,28.40
2018-07-01T10:49:24.686Z,28.40
2018-07-01T10:51:54.797Z,28.50
2018-07-01T10:54:24.967Z,28.60
2018-07-01T10:59:30.428Z,27.00
2018-07-01T11:02:00.599Z,27.80
2018-07-01T11:04:30.761Z,29.30
2018-07-01T11:07:00.963Z,28.70
2018-07-01T11:09:31.085Z,27.70
2018-07-01T11:12:01.262Z,27.20
2018-07-01T11:14:31.408Z,27.80
2018-07-01T11:17:01.704Z,27.40
2018-07-01T11:19:31.831Z,28.10
2018-07-01T11:22:02.392Z,27.80
2018-07-01T11:24:32.525Z,27.70
2018-07-01T11:27:03.008Z,27.60
2018-07-01T11:29:32.877Z,27.90
2018-07-01T11:32:03.100Z,27.70
2018-07-01T11:34:33.244Z,27.50
2018-07-01T11:37:03.525Z,27.20
2018-07-01T11:39:33.662Z,27.10
2018-07-01T11:42:03.916Z,27.30
2018-07-01T11:44:34.121Z,28.00
2018-07-01T11:47:04.256Z,26.60
2018-07-01T11:49:34.442Z,26.40
2018-07-01T11:52:04.813Z,28.30
2018-07-01T11:54:34.958Z,27.20
2018-07-01T11:57:05.172Z,26.50
2018-07-01T11:59:35.299Z,26.30
2018-07-01T12:02:05.457Z,26.40
2018-07-01T12:04:35.654Z,27.00
2018-07-01T12:07:10.896Z,28.10
2018-07-01T12:09:44.853Z,28.50
2018-07-01T12:12:14.998Z,28.60
2018-07-01T12:14:45.171Z,29.00
2018-07-01T12:17:15.335Z,29.70
2018-07-01T12:19:45.481Z,29.10
2018-07-01T12:22:15.645Z,28.80
2018-07-01T12:24:45.960Z,29.20
2018-07-01T12:27:16.125Z,29.20
2018-07-01T12:29:46.291Z,30.90
2018-07-01T12:32:16.469Z,29.60
2018-07-01T12:34:47.842Z,29.30
2018-07-01T12:37:17.998Z,29.30
2018-07-01T12:39:48.137Z,28.90
2018-07-01T12:42:18.588Z,30.00
2018-07-01T12:44:48.709Z,30.20
2018-07-01T12:47:18.963Z,30.00
2018-07-01T12:49:49.109Z,29.50
2018-07-01T12:52:19.251Z,30.00
2018-07-01T12:54:49.540Z,29.30
2018-07-01T12:57:19.669Z,29.40
2018-07-01T12:59:49.802Z,30.20
2018-07-01T13:02:19.999Z,30.10
2018-07-01T13:04:50.274Z,30.40
2018-07-01T13:07:20.426Z,29.30
2018-07-01T13:09:50.595Z,28.80
2018-07-01T13:12:20.754Z,29.40
2018-07-01T13:14:50.906Z,29.40
2018-07-01T13:17:21.054Z,29.50
2018-07-01T13:19:51.224Z,29.70
2018-07-01T13:22:21.363Z,29.60
2018-07-01T13:24:51.774Z,29.60
2018-07-01T13:27:22.016Z,29.10
2018-07-01T13:29:52.169Z,29.60
2018-07-01T13:32:22.321Z,30.50
2018-07-01T13:34:52.518Z,30.60
2018-07-01T13:37:22.661Z,29.60
2018-07-01T13:39:52.813Z,30.20
2018-07-01T13:42:22.971Z,29.00
2018-07-01T13:44:53.141Z,29.60
2018-07-01T13:47:23.298Z,29.60
2018-07-01T13:49:53.474Z,30.30
2018-07-01T13:52:23.644Z,30.00
2018-07-01T13:54:53.786Z,29.90
2018-07-01T13:57:23.965Z,30.80
2018-07-01T13:59:54.104Z,30.00
2018-07-01T14:02:24.260Z,30.80
2018-07-01T14:04:54.420Z,30.10
2018-07-01T14:07:24.589Z,30.80
2018-07-01T14:09:54.745Z,30.00
2018-07-01T14:12:24.944Z,30.20
2018-07-01T14:14:55.084Z,30.80
2018-07-01T14:17:25.268Z,31.50
2018-07-01T14:19:55.415Z,31.50
2018-07-01T14:22:25.561Z,31.60
2018-07-01T14:24:55.708Z,31.10
2018-07-01T14:27:26.046Z,32.00
2018-07-01T14:29:56.204Z,31.50
2018-07-01T14:32:26.376Z,31.10
2018-07-01T14:34:56.521Z,31.80
2018-07-01T14:37:26.693Z,31.70
2018-07-01T14:39:56.849Z,32.50
2018-07-01T14:42:27.024Z,32.30
2018-07-01T14:44:57.450Z,32.70
2018-07-01T14:47:27.640Z,32.80
2018-07-01T14:49:57.860Z,32.80
2018-07-01T14:52:28.013Z,32.60
2018-07-01T14:54:58.220Z,33.40
2018-07-01T14:57:28.327Z,34.50
2018-07-01T14:59:58.925Z,33.90
2018-07-01T15:02:29.062Z,33.30
2018-07-01T15:04:59.198Z,33.50
2018-07-01T15:07:29.374Z,34.40
2018-07-01T15:10:00.384Z,34.90
2018-07-01T15:12:30.542Z,33.90
2018-07-01T15:15:00.674Z,33.60
2018-07-01T15:17:30.846Z,34.40
2018-07-01T15:20:01.000Z,35.20
2018-07-01T15:22:31.168Z,34.20
2018-07-01T15:25:01.325Z,34.30
2018-07-01T15:27:31.482Z,35.00
2018-07-01T15:30:07.757Z,34.70
2018-07-01T15:32:38.028Z,34.70
2018-07-01T15:35:08.438Z,34.70
2018-07-01T15:37:38.590Z,34.80
2018-07-01T15:40:08.888Z,34.10
2018-07-01T15:42:39.031Z,34.20
2018-07-01T15:45:09.212Z,33.40
2018-07-01T15:47:39.523Z,32.70
2018-07-01T15:50:09.704Z,32.70
2018-07-01T15:55:09.836Z,32.60
2018-07-01T15:57:40.022Z,31.80
2018-07-01T16:00:10.129Z,32.00
2018-07-01T16:02:40.298Z,31.10
2018-07-01T16:05:10.491Z,30.80
2018-07-01T16:07:40.619Z,31.00
2018-07-01T16:10:10.981Z,31.40
2018-07-01T16:12:41.125Z,30.20
2018-07-01T16:15:12.400Z,30.00
2018-07-01T16:17:42.814Z,29.80
2018-07-01T16:20:15.572Z,29.60
2018-07-01T16:22:45.741Z,28.70
2018-07-01T16:25:21.246Z,28.90
2018-07-01T16:30:26.676Z,28.60
2018-07-01T16:32:56.822Z,28.40
2018-07-01T16:35:27.005Z,28.80
2018-07-01T16:37:57.156Z,29.80
2018-07-01T16:40:27.341Z,29.90
2018-07-01T16:42:57.509Z,29.70
2018-07-01T16:45:27.858Z,29.70
2018-07-01T16:47:58.000Z,28.90
2018-07-01T16:50:28.138Z,29.50
2018-07-01T16:52:58.313Z,29.40
2018-07-01T16:55:28.474Z,30.00
2018-07-01T16:57:58.890Z,30.00
2018-07-01T17:00:29.029Z,30.60
2018-07-01T17:02:59.206Z,30.00
2018-07-01T17:05:29.506Z,30.50
2018-07-01T17:07:59.584Z,31.00
2018-07-01T17:10:29.742Z,31.60
2018-07-01T17:12:59.888Z,31.90
2018-07-01T17:15:30.034Z,32.70
2018-07-01T17:18:00.167Z,32.80
2018-07-01T17:20:30.322Z,32.90
2018-07-01T17:23:00.495Z,32.70
2018-07-01T17:25:30.670Z,32.30
2018-07-01T17:28:00.825Z,32.30
2018-07-01T17:30:30.974Z,33.20
2018-07-01T17:33:07.126Z,34.10
2018-07-01T17:35:37.275Z,34.30
2018-07-01T17:38:07.454Z,35.70
2018-07-01T17:40:37.692Z,35.30
2018-07-01T17:43:07.868Z,35.30
2018-07-01T17:45:37.998Z,35.70
2018-07-01T17:48:08.417Z,35.40
2018-07-01T17:50:38.561Z,35.20
2018-07-01T17:53:08.962Z,34.70
2018-07-01T17:55:39.303Z,34.90
2018-07-01T17:58:09.474Z,35.00
2018-07-01T18:00:39.658Z,35.10
2018-07-01T18:03:09.798Z,35.20
2018-07-01T18:05:39.948Z,35.60
2018-07-01T18:08:10.084Z,36.10
2018-07-01T18:10:40.285Z,36.60
2018-07-01T18:13:10.438Z,36.70
2018-07-01T18:15:40.614Z,37.00
2018-07-01T18:18:10.825Z,36.90
2018-07-01T18:20:40.965Z,37.40
2018-07-01T18:25:41.254Z,37.50
2018-07-01T18:28:26.510Z,37.30
2018-07-01T18:30:45.968Z,37.10
2018-07-01T18:33:16.265Z,37.20
2018-07-01T18:35:47.625Z,37.30
2018-07-01T18:38:17.826Z,37.20
2018-07-01T18:40:48.433Z,37.10
2018-07-01T18:43:18.152Z,37.00
2018-07-01T18:45:48.325Z,37.20
2018-07-01T18:48:18.469Z,37.40
2018-07-01T18:50:51.401Z,38.60
2018-07-01T18:53:21.649Z,37.90
2018-07-01T18:55:51.725Z,38.10
2018-07-01T18:58:21.877Z,38.10
2018-07-01T19:00:52.029Z,38.50
2018-07-01T19:03:22.228Z,38.90
2018-07-01T19:05:52.344Z,39.20
2018-07-01T19:08:22.522Z,39.40
2018-07-01T19:10:52.670Z,39.60
2018-07-01T19:13:22.820Z,39.70
2018-07-01T19:15:52.966Z,40.00
2018-07-01T19:18:23.117Z,40.20
2018-07-01T19:20:53.303Z,40.40
2018-07-01T19:23:23.528Z,40.70
2018-07-01T19:25:53.721Z,40.90
2018-07-01T19:28:23.893Z,41.20
2018-07-01T19:30:54.050Z,41.40
2018-07-01T19:33:24.179Z,41.70
2018-07-01T19:35:54.480Z,41.70
2018-07-01T19:38:24.643Z,41.90
2018-07-01T19:40:54.799Z,42.40
2018-07-01T19:43:25.139Z,42.60
2018-07-01T19:45:55.117Z,42.80
2018-07-01T19:48:25.450Z,42.70
2018-07-01T19:50:55.598Z,43.10
2018-07-01T19:53:25.749Z,43.50
2018-07-01T19:55:55.895Z,43.50
2018-07-01T19:58:26.048Z,43.90
2018-07-01T20:00:56.343Z,43.80
2018-07-01T20:03:26.467Z,43.90
2018-07-01T20:05:56.637Z,44.00
2018-07-01T20:08:26.762Z,44.20
2018-07-01T20:10:56.927Z,44.30
2018-07-01T20:13:27.122Z,44.50
2018-07-01T20:15:57.299Z,44.70
2018-07-01T20:18:27.486Z,45.10
2018-07-01T20:20:57.613Z,45.20
2018-07-01T20:23:27.769Z,45.30
2018-07-01T20:25:57.916Z,45.60
2018-07-01T20:28:28.085Z,46.20
2018-07-01T20:30:58.226Z,46.50
2018-07-01T20:33:28.380Z,46.30
2018-07-01T20:35:58.536Z,46.50
2018-07-01T20:38:28.622Z,46.40
2018-07-01T20:40:58.768Z,46.30
2018-07-01T20:43:29.146Z,46.60
2018-07-01T20:45:59.269Z,46.70
2018-07-01T20:48:29.433Z,47.00
2018-07-01T20:50:59.568Z,47.40
2018-07-01T20:53:29.951Z,47.50
2018-07-01T20:56:00.094Z,47.50
2018-07-01T20:58:30.257Z,47.90
2018-07-01T21:01:00.403Z,48.10
2018-07-01T21:03:30.578Z,48.40
2018-07-01T21:06:00.713Z,48.20
2018-07-01T21:08:30.865Z,48.20
2018-07-01T21:11:01.053Z,48.30
2018-07-01T21:13:31.451Z,48.50
2018-07-01T21:16:01.581Z,48.60
2018-07-01T21:18:31.754Z,48.60
2018-07-01T21:21:01.887Z,49.20
2018-07-01T21:23:32.047Z,49.20
2018-07-01T21:26:02.224Z,49.10
2018-07-01T21:28:32.362Z,49.20
2018-07-01T21:31:02.518Z,49.70
2018-07-01T21:33:32.689Z,49.50
2018-07-01T21:36:02.838Z,49.60
2018-07-01T21:38:32.987Z,49.80
2018-07-01T21:41:03.166Z,49.80
2018-07-01T21:43:33.273Z,50.50
2018-07-01T21:46:03.435Z,50.00
2018-07-01T21:48:33.593Z,50.10
2018-07-01T21:51:03.758Z,50.00
2018-07-01T21:53:33.882Z,50.20
2018-07-01T21:56:04.073Z,50.40
2018-07-01T21:58:34.249Z,50.30
2018-07-01T22:01:05.665Z,50.80
2018-07-01T22:03:35.856Z,50.60
2018-07-01T22:06:07.958Z,51.20
2018-07-01T22:08:38.776Z,51.30
2018-07-01T22:12:00.038Z,51.10
2018-07-01T22:14:38.093Z,51.00
2018-07-01T22:17:10.956Z,51.30
2018-07-01T22:19:41.605Z,51.50
2018-07-01T22:22:12.155Z,51.60
2018-07-01T22:24:43.690Z,51.70
2018-07-01T22:29:46.112Z,52.30
2018-07-01T22:32:16.369Z,52.30
2018-07-01T22:34:46.613Z,52.50
2018-07-01T22:37:16.911Z,52.50
2018-07-01T22:39:47.079Z,52.80
2018-07-01T22:42:17.293Z,52.80
2018-07-01T22:44:48.914Z,53.50
2018-07-01T22:47:19.242Z,53.10
2018-07-01T22:49:49.428Z,53.80
2018-07-01T22:52:19.600Z,53.10
2018-07-01T22:54:49.805Z,53.10
2018-07-01T22:57:20.094Z,53.30
2018-07-01T22:59:50.277Z,53.50
2018-07-01T23:03:04.870Z,53.60
2018-07-01T23:05:35.058Z,53.80
2018-07-01T23:08:05.516Z,54.10
2018-07-01T23:10:35.709Z,53.80
2018-07-01T23:13:05.936Z,54.10
2018-07-01T23:15:36.117Z,54.30
2018-07-01T23:18:06.357Z,54.60
2018-07-01T23:20:40.265Z,54.90
2018-07-01T23:23:10.681Z,54.90
2018-07-01T23:25:40.893Z,54.90
2018-07-01T23:28:11.118Z,55.00
2018-07-01T23:30:41.486Z,55.40
2018-07-01T23:33:11.934Z,55.30
2018-07-01T23:35:42.122Z,55.60
2018-07-01T23:38:13.647Z,56.00
2018-07-01T23:40:43.793Z,55.90
2018-07-01T23:43:14.041Z,56.00
2018-07-01T23:45:44.376Z,55.90
2018-07-01T23:48:14.712Z,56.00
2018-07-01T23:50:45.316Z,56.20
2018-07-01T23:53:15.584Z,56.50
2018-07-01T23:55:45.826Z,56.70
2018-07-01T23:58:16.445Z,56.90
